To NAV CANADA Home Page Login to a new session Search on AWWS site Disclaimer Vers la page française équivalente Tips FAQ What's new on the site To the Forecasts and Observations / NOTAM section To "File a Flight Plan" website Publications and other links Update of the User's profile FIC Telephone Numbers My Weather Data Folder Route Weather Data Regional Weather Data Local Weather Data To the Forecasts and Observations / NOTAM section
Request Generated 03/19/2019 at 23:11:26 UTC . Weather information available at that time is displayed.

METAR/TAF

TERRACE/BC    

METAR CYXT 192300Z 35008KT 330V040 20SM SKC 16/01 A3005 RMK SLP181 DENSITY ALT 900FT=
METAR CYXT 192200Z 36007KT 20SM SKC 15/03 A3005 RMK SLP185 DENSITY ALT 800FT=
METAR CYXT 192100Z 01012G21KT 20SM SKC 13/01 A3008 RMK SLP193=

TAF CYXT 191838Z 1919/2007 01015G25KT P6SM SKC
BECMG 1922/1924 01010G20KT
RMK NXT FCST BY 200100Z=
Your time UTC time
Weather data provided by Environment Canada and NAV CANADA